Time;durP1;ratioP1;P1;durP2;ratioP2;P2;SDS_P1;SDS_P2;PMS_P1;PMS_P2;Temp;Humidity;BMP_temperature;BMP_pressure;BME280_temperature;BME280_humidity;BME280_pressure;Samples;Min_cycle;Max_cycle;Signal;HPM_P1;HPM_P2
2021/03/21 00:01:25;;;;;;;11.53;7.97;;;;;;;7.98;47.83;100753.61;1788036;79;21153;-76
2021/03/21 00:03:53;;;;;;;12.05;7.58;;;;;;;8.00;47.71;100751.67;1788150;80;21149;-77
2021/03/21 00:06:21;;;;;;;10.88;7.50;;;;;;;7.98;47.67;100741.61;1788224;79;21134;-77
2021/03/21 00:08:49;;;;;;;9.50;7.00;;;;;;;7.99;47.63;100749.13;1788272;80;21062;-77
2021/03/21 00:11:16;;;;;;;12.65;7.35;;;;;;;7.98;47.58;100744.77;1788361;80;21062;-75
2021/03/21 00:13:43;;;;;;;;;;;;;;;7.96;47.52;100740.91;1790880;79;21161;-76
2021/03/21 00:16:11;;;;;;;11.00;7.12;;;;;;;7.96;47.50;100739.58;1788500;80;28510;-76
2021/03/21 00:18:40;;;;;;;10.32;6.75;;;;;;;7.92;47.45;100734.16;1788232;80;21133;-76
2021/03/21 00:21:11;;;;;;;10.70;6.70;;;;;;;7.92;47.43;100739.49;1789071;79;21042;-76
2021/03/21 00:23:38;;;;;;;11.22;7.55;;;;;;;7.91;47.48;100736.48;1754899;81;21076;-76
2021/03/21 00:26:05;;;;;;;;;;;;;;;7.92;47.53;100735.49;1791629;79;21138;-77
2021/03/21 00:28:38;;;;;;;13.25;8.33;;;;;;;7.92;47.53;100735.49;1789297;80;20237;-78
2021/03/21 00:31:09;;;;;;;19.25;10.78;;;;;;;7.90;47.55;100730.77;1730023;81;21167;-78
2021/03/21 00:33:37;;;;;;;18.25;10.43;;;;;;;7.90;47.61;100729.43;1776177;80;21173;-77
2021/03/21 00:36:07;;;;;;;18.10;10.10;;;;;;;7.91;47.58;100730.30;1752450;81;21603;-77
2021/03/21 00:38:39;;;;;;;19.20;9.73;;;;;;;7.90;47.51;100733.43;1786881;80;21181;-78
2021/03/21 00:41:08;;;;;;;14.58;9.48;;;;;;;7.91;47.61;100727.14;1752797;81;21072;-76
2021/03/21 00:43:36;;;;;;;15.10;9.20;;;;;;;7.91;47.55;100728.48;1788244;80;21058;-78
2021/03/21 00:46:04;;;;;;;;;;;;;;;7.90;47.54;100729.43;1755614;81;21187;-78
2021/03/21 00:48:35;;;;;;;15.85;9.15;;;;;;;7.89;47.57;100729.08;1788097;80;20467;-76
2021/03/21 00:51:03;;;;;;;14.50;9.20;;;;;;;7.86;47.53;100728.04;1729720;81;21187;-77
2021/03/21 00:53:31;;;;;;;14.47;8.58;;;;;;;7.83;47.51;100729.14;1788181;80;21122;-77
2021/03/21 00:55:58;;;;;;;16.87;9.33;;;;;;;7.83;47.58;100732.30;1753524;81;21067;-77
2021/03/21 00:58:26;;;;;;;18.42;9.75;;;;;;;7.82;47.67;100730.12;1788180;80;21141;-77
2021/03/21 01:00:56;;;;;;;14.18;8.70;;;;;;;7.80;47.67;100726.73;1753483;81;21134;-76
2021/03/21 01:03:24;;;;;;;17.50;10.58;;;;;;;7.79;47.70;100729.54;1788127;79;21568;-77
2021/03/21 01:06:03;;;;;;;15.80;9.15;;;;;;;7.76;47.64;100733.80;1753571;81;21132;-76
2021/03/21 01:08:36;;;;;;;15.50;9.58;;;;;;;7.77;47.60;100732.34;1788284;80;21576;-77
2021/03/21 01:11:12;;;;;;;15.15;9.83;;;;;;;7.47;48.14;100727.83;1788302;79;21046;-77
2021/03/21 01:13:39;;;;;;;15.30;8.73;;;;;;;7.40;48.29;100726.66;1753578;81;21648;-77
2021/03/21 01:16:16;;;;;;;12.35;8.25;;;;;;;7.39;48.22;100724.97;1788478;80;21062;-77
2021/03/21 01:18:43;;;;;;;14.73;9.03;;;;;;;7.37;48.36;100717.61;1753800;81;21124;-78
2021/03/21 01:21:11;;;;;;;13.93;8.73;;;;;;;7.59;47.76;100718.79;1788349;79;21589;-77
2021/03/21 01:23:40;;;;;;;14.60;8.55;;;;;;;7.61;47.58;100715.48;1753640;81;21633;-78
2021/03/21 01:26:14;;;;;;;14.87;8.78;;;;;;;7.60;47.62;100704.48;1788235;80;21498;-77
2021/03/21 01:28:42;;;;;;;12.47;8.55;;;;;;;7.61;47.59;100715.48;1753464;81;21674;-76
2021/03/21 01:31:14;;;;;;;17.02;9.88;;;;;;;7.61;47.46;100713.31;1788157;80;21173;-75
2021/03/21 01:33:41;;;;;;;16.57;9.80;;;;;;;7.58;47.44;100707.75;1753494;81;21140;-76
2021/03/21 01:36:29;;;;;;;14.18;8.93;;;;;;;7.59;47.33;100710.80;1788171;80;21059;-77
2021/03/21 01:38:59;;;;;;;16.35;8.98;;;;;;;7.58;47.28;100707.75;1753912;81;21084;-78
2021/03/21 01:41:31;;;;;;;13.15;8.73;;;;;;;7.57;47.29;100707.89;1788107;80;21161;-78
2021/03/21 01:43:58;;;;;;;12.80;8.45;;;;;;;7.55;47.30;100708.03;1753570;81;21084;-76
2021/03/21 01:46:40;;;;;;;16.55;8.38;;;;;;;7.55;47.23;100708.03;1788187;80;21118;-76
2021/03/21 01:49:27;;;;;;;14.23;9.13;;;;;;;7.32;47.58;100709.17;1788264;79;21066;-77
2021/03/21 01:51:55;;;;;;;13.73;9.10;;;;;;;7.49;47.21;100707.70;1753729;81;21088;-77
2021/03/21 01:54:23;;;;;;;13.32;8.75;;;;;;;7.49;47.21;100707.70;1788179;80;22282;-78
2021/03/21 01:56:50;;;;;;;12.80;8.25;;;;;;;7.49;46.92;100708.54;1753506;81;21571;-78
2021/03/21 01:59:30;;;;;;;12.47;8.38;;;;;;;7.47;46.97;100703.84;1803440;79;21059;-78
2021/03/21 02:02:01;;;;;;;14.25;8.55;;;;;;;7.46;46.98;100699.50;1753532;81;21689;-77
2021/03/21 02:04:29;;;;;;;12.37;8.85;;;;;;;7.45;46.91;100698.27;1788198;79;21169;-77
2021/03/21 02:07:31;;;;;;;15.10;8.58;;;;;;;7.44;47.00;100701.43;1788074;79;21086;-75
2021/03/21 02:10:32;;;;;;;12.37;8.43;;;;;;;7.43;46.96;100693.09;1753407;81;21539;-78
2021/03/21 02:13:05;;;;;;;16.35;8.85;;;;;;;7.38;46.93;100694.81;1788198;80;21173;-76
2021/03/21 02:15:51;;;;;;;15.15;8.20;;;;;;;7.35;46.90;100697.73;1753469;81;21143;-75
2021/03/21 02:18:51;;;;;;;13.98;8.90;;;;;;;7.33;46.87;100691.70;1777299;80;21106;-77
2021/03/21 02:21:57;;;;;;;13.30;8.98;;;;;;;7.31;46.99;100692.80;1753509;81;21111;-76
2021/03/21 02:24:58;;;;;;;13.25;7.95;;;;;;;7.29;46.97;100691.61;1705753;81;21131;-76
2021/03/21 02:28:15;;;;;;;13.80;8.30;;;;;;;7.26;46.80;100685.69;1718689;81;21554;-76
2021/03/21 02:30:45;;;;;;;15.90;11.25;;;;;;;7.11;47.18;100694.02;1788093;80;21565;-78
2021/03/21 02:33:33;;;;;;;15.53;10.90;;;;;;;7.02;47.42;100692.62;1752774;81;21568;-77
2021/03/21 02:36:09;;;;;;;;;;;;;;;6.92;47.73;100695.72;1790701;80;21569;-76
2021/03/21 02:38:55;;;;;;;13.80;8.83;;;;;;;6.91;47.86;100690.87;1776698;80;20291;-75
2021/03/21 02:41:34;;;;;;;13.05;8.80;;;;;;;6.90;47.83;100690.98;1771510;79;21257;-77
2021/03/21 02:44:16;;;;;;;15.28;9.28;;;;;;;6.89;47.89;100683.48;1752032;81;21177;-77
2021/03/21 02:46:47;;;;;;;15.03;8.70;;;;;;;6.91;47.93;100682.05;1786690;80;21471;-76
2021/03/21 02:49:27;;;;;;;13.40;8.33;;;;;;;6.92;47.85;100682.40;1751990;81;21175;-76
2021/03/21 02:51:58;;;;;;;15.23;9.00;;;;;;;6.93;47.80;100683.59;1751507;81;21214;-77
2021/03/21 02:54:32;;;;;;;21.60;9.58;;;;;;;6.94;47.77;100685.27;1786884;79;21176;-77
2021/03/21 02:57:10;;;;;;;12.88;8.40;;;;;;;6.96;47.78;100687.34;1722603;82;21193;-75
2021/03/21 02:59:40;;;;;;;;;;;;;;;6.97;47.68;100688.18;1790817;79;21485;-76
2021/03/21 03:02:22;;;;;;;17.23;9.23;;;;;;;6.96;47.81;100690.00;1787937;80;20212;-76
2021/03/21 03:04:54;;;;;;;16.67;9.35;;;;;;;6.95;47.82;100688.31;1753438;81;21203;-75
2021/03/21 03:07:44;;;;;;;15.03;8.85;;;;;;;6.96;47.85;100692.66;1788074;80;21568;-76
2021/03/21 03:10:20;;;;;;;17.27;10.13;;;;;;;6.96;47.76;100693.99;1753395;81;21625;-76
2021/03/21 03:12:55;;;;;;;16.67;9.73;;;;;;;6.97;47.76;100695.68;1802438;79;21505;-76
2021/03/21 03:15:22;;;;;;;16.82;10.00;;;;;;;6.97;47.74;100691.69;1798821;79;21205;-76
2021/03/21 03:18:02;;;;;;;15.10;9.10;;;;;;;6.98;47.61;100693.86;1785330;78;21217;-77
2021/03/21 03:20:43;;;;;;;12.90;8.98;;;;;;;6.98;47.55;100689.86;1796080;77;21679;-77
2021/03/21 03:23:30;;;;;;;13.83;8.53;;;;;;;6.99;47.48;100692.38;1769585;79;21177;-77
2021/03/21 03:26:04;;;;;;;13.25;8.75;;;;;;;6.99;47.52;100684.89;1783325;78;21655;-76
2021/03/21 03:28:40;;;;;;;13.25;9.30;;;;;;;6.99;47.51;100689.72;1809320;77;21192;-76
2021/03/21 03:31:15;;;;;;;14.90;10.13;;;;;;;6.97;47.50;100686.36;1782720;78;21387;-75
2021/03/21 03:33:43;;;;;;;13.05;8.90;;;;;;;6.98;47.49;100690.70;1790781;78;21549;-77
2021/03/21 03:36:14;;;;;;;13.32;8.98;;;;;;;6.98;47.62;100688.04;1793974;78;21121;-74
2021/03/21 03:38:46;;;;;;;12.85;8.33;;;;;;;6.99;47.58;100686.22;1782597;78;21153;-76
2021/03/21 03:41:35;;;;;;;14.03;8.40;;;;;;;6.98;47.52;100689.37;1826928;78;21087;-76
2021/03/21 03:44:34;;;;;;;11.85;8.33;;;;;;;7.23;47.06;100691.30;1726754;81;21635;-76
2021/03/21 03:47:24;;;;;;;13.20;8.90;;;;;;;7.28;46.81;100688.59;1735935;80;21141;-76
2021/03/21 03:50:09;;;;;;;14.20;9.10;;;;;;;7.28;46.74;100685.93;1789200;78;21177;-75
2021/03/21 03:53:17;;;;;;;17.02;12.73;;;;;;;7.14;47.04;100685.43;1895726;74;27822;-76
2021/03/21 03:56:05;;;;;;;18.37;11.53;;;;;;;7.34;46.69;100685.89;1873778;76;21469;-75
2021/03/21 03:59:13;;;;;;;22.50;10.30;;;;;;;7.39;46.49;100678.34;1886164;75;21069;-77
2021/03/21 04:01:55;;;;;;;16.73;9.60;;;;;;;7.35;46.54;100685.74;1884760;76;21188;-75
2021/03/21 04:04:31;;;;;;;17.55;9.85;;;;;;;7.30;46.55;100685.79;1884385;75;21113;-75
2021/03/21 04:07:19;;;;;;;18.20;10.13;;;;;;;7.27;46.57;100690.07;1884195;76;21211;-74
2021/03/21 04:10:11;;;;;;;15.68;9.78;;;;;;;7.26;46.62;100687.02;1884330;76;21156;-77
2021/03/21 04:13:05;;;;;;;13.50;8.53;;;;;;;7.23;46.57;100684.64;1884371;75;21180;-76
2021/03/21 04:15:38;;;;;;;13.90;8.83;;;;;;;7.22;46.60;100681.59;1884434;76;21746;-76
2021/03/21 04:18:26;;;;;;;12.30;8.30;;;;;;;7.20;46.66;100687.06;1853665;76;21029;-77
2021/03/21 04:21:10;;;;;;;12.53;7.95;;;;;;;7.20;46.72;100688.89;1871515;75;21073;-76
2021/03/21 04:23:45;;;;;;;11.80;7.85;;;;;;;7.17;46.69;100683.32;1885832;76;21125;-76
2021/03/21 04:26:16;;;;;;;12.15;8.45;;;;;;;7.15;46.68;100684.45;1885900;76;21058;-74
2021/03/21 04:28:52;;;;;;;13.35;8.63;;;;;;;7.13;46.74;100681.92;1885979;75;21461;-75
2021/03/21 04:31:20;;;;;;;13.00;8.48;;;;;;;7.11;46.78;100679.37;1885887;76;21100;-77
2021/03/21 04:33:55;;;;;;;13.83;8.80;;;;;;;7.09;46.86;100677.34;1885824;76;21124;-74
2021/03/21 04:36:27;;;;;;;11.38;8.40;;;;;;;7.10;46.88;100680.35;1886040;75;21066;-75
2021/03/21 04:41:50;;;;;;;13.55;8.28;;;;;;;7.07;46.99;100677.94;1773686;78;21556;-75
2021/03/21 04:44:34;;;;;;;12.63;8.98;;;;;;;7.09;46.92;100676.50;1772765;81;20987;-75
2021/03/21 04:47:10;;;;;;;15.05;9.88;;;;;;;7.09;46.99;100678.67;1772820;81;21470;-77
2021/03/21 04:49:37;;;;;;;16.27;10.58;;;;;;;7.09;47.08;100674.67;1772727;81;21106;-75
2021/03/21 04:52:16;;;;;;;15.93;10.45;;;;;;;7.10;47.14;100679.02;1772846;81;21506;-75
2021/03/21 04:54:46;;;;;;;16.23;10.78;;;;;;;7.11;47.17;100672.71;1772606;80;21118;-76
2021/03/21 04:57:48;;;;;;;14.70;10.35;;;;;;;7.16;47.20;100680.31;1772969;80;21513;-75
2021/03/21 05:00:29;;;;;;;16.15;10.20;;;;;;;7.19;47.16;100680.05;1758359;80;21122;-74
2021/03/21 05:03:23;;;;;;;19.00;12.53;;;;;;;7.22;47.13;100675.81;1776215;79;20995;-77
2021/03/21 05:05:57;;;;;;;20.20;11.95;;;;;;;7.26;47.06;100682.53;1776305;79;21067;-76
2021/03/21 05:08:33;;;;;;;13.48;9.20;;;;;;;7.29;47.19;100692.10;1760948;80;21033;-77
2021/03/21 05:11:01;;;;;;;15.65;9.33;;;;;;;7.33;47.12;100681.54;1745299;80;21023;-76
2021/03/21 05:13:40;;;;;;;13.62;8.75;;;;;;;7.37;47.13;100681.14;1724733;80;21106;-75
2021/03/21 05:16:15;;;;;;;12.47;8.80;;;;;;;7.42;46.96;100686.08;1754928;79;21092;-75
2021/03/21 05:19:14;;;;;;;12.30;8.95;;;;;;;7.48;46.81;100684.70;1740039;80;21189;-76
2021/03/21 05:21:50;;;;;;;11.70;7.58;;;;;;;7.53;46.74;100687.80;1780564;80;21662;-76
2021/03/21 05:24:33;;;;;;;13.83;8.30;;;;;;;7.58;46.67;100690.42;1748645;81;21690;-75
2021/03/21 05:27:21;;;;;;;13.25;8.53;;;;;;;7.66;46.64;100681.77;1745339;81;21592;-75
2021/03/21 05:30:00;;;;;;;13.13;7.65;;;;;;;7.75;46.58;100688.11;1672717;85;21232;-75
2021/03/21 05:32:27;;;;;;;12.07;7.80;;;;;;;7.84;46.21;100681.98;1697656;84;21675;-75
2021/03/21 05:34:57;;;;;;;12.28;7.75;;;;;;;7.91;46.11;100685.80;1697583;84;21176;-76
2021/03/21 05:38:03;;;;;;;11.30;7.67;;;;;;;7.98;46.00;100684.76;1713691;83;21180;-76
2021/03/21 05:41:10;;;;;;;13.25;7.20;;;;;;;8.06;45.88;100691.59;1716591;83;21229;-75
2021/03/21 05:44:10;;;;;;;10.63;7.65;;;;;;;8.16;45.69;100690.28;1695699;78;21663;-75
2021/03/21 05:46:49;;;;;;;14.73;9.00;;;;;;;8.22;45.42;100691.06;1696025;84;21229;-76
2021/03/21 05:49:53;;;;;;;10.98;7.78;;;;;;;8.29;45.34;100691.72;1695904;83;21213;-76
2021/03/21 05:52:55;;;;;;;13.30;8.83;;;;;;;8.36;45.00;100684.02;1696176;84;21193;-76
2021/03/21 05:55:33;;;;;;;11.78;7.85;;;;;;;8.47;45.05;100685.24;1695968;84;21196;-74
2021/03/21 05:58:24;;;;;;;10.55;7.95;;;;;;;8.54;44.93;100677.04;1697578;84;21604;-76
2021/03/21 06:01:26;;;;;;;11.90;8.08;;;;;;;8.62;45.00;100679.83;1698485;84;21519;-76
2021/03/21 06:04:17;;;;;;;13.22;7.60;;;;;;;8.75;44.73;100684.06;1697763;84;21237;-75
2021/03/21 06:07:28;;;;;;;10.95;7.87;;;;;;;8.89;44.47;100680.95;1697447;84;21619;-75
2021/03/21 06:10:09;;;;;;;12.68;7.50;;;;;;;9.02;44.25;100678.84;1696923;84;21691;-76
2021/03/21 06:13:11;;;;;;;12.10;7.47;;;;;;;9.11;43.95;100673.97;1697222;83;21703;-76
2021/03/21 06:16:05;;;;;;;9.30;7.55;;;;;;;9.24;43.62;100675.50;1696308;84;21216;-75
2021/03/21 06:18:47;;;;;;;11.38;7.72;;;;;;;9.37;43.46;100682.22;1698951;82;21205;-75
2021/03/21 06:21:29;;;;;;;11.78;8.38;;;;;;;9.52;43.28;100672.39;1698102;82;21205;-78
2021/03/21 06:24:40;;;;;;;13.65;8.20;;;;;;;9.65;42.95;100678.25;1696505;84;21216;-77
2021/03/21 06:27:52;;;;;;;11.60;7.72;;;;;;;9.76;42.59;100679.89;1696860;82;21172;-75
2021/03/21 06:31:02;;;;;;;11.53;7.33;;;;;;;9.87;42.55;100677.03;1730240;83;21097;-76
2021/03/21 06:33:48;;;;;;;;;;;;;;;9.97;41.82;100675.15;1732974;83;21600;-77
2021/03/21 06:36:31;;;;;;;10.48;7.62;;;;;;;10.08;41.91;100670.95;1730360;83;20123;-77
2021/03/21 06:39:25;;;;;;;10.85;7.37;;;;;;;10.15;41.48;100669.34;1730229;83;21184;-76
2021/03/21 06:42:31;;;;;;;14.13;8.90;;;;;;;10.15;40.96;100668.50;1853772;77;22632;-77
2021/03/21 06:45:46;;;;;;;10.95;7.60;;;;;;;10.04;40.97;100665.55;1825003;78;21163;-76
2021/03/21 06:48:52;;;;;;;10.65;7.20;;;;;;;9.97;41.20;100667.12;1762065;81;21164;-76
2021/03/21 06:51:46;;;;;;;11.08;7.33;;;;;;;9.89;41.19;100664.34;1783050;80;21160;-75
2021/03/21 06:54:59;;;;;;;11.70;6.95;;;;;;;9.84;40.82;100663.95;1816244;78;21179;-76
2021/03/21 06:57:37;;;;;;;9.68;7.28;;;;;;;9.77;40.85;100661.03;1815281;77;21673;-75
2021/03/21 07:00:37;;;;;;;9.80;6.97;;;;;;;9.71;40.56;100652.74;1857085;77;21208;-75
2021/03/21 07:03:59;;;;;;;11.28;7.25;;;;;;;9.65;40.78;100650.17;1855961;77;21192;-76
2021/03/21 07:07:04;;;;;;;10.98;7.42;;;;;;;9.62;41.44;100649.95;1785051;80;21259;-76
2021/03/21 07:10:19;;;;;;;11.03;7.10;;;;;;;9.60;40.77;100642.59;1851888;77;23257;-74
2021/03/21 07:13:08;;;;;;;8.33;5.92;;;;;;;9.55;41.24;100637.34;1822590;78;21231;-77
2021/03/21 07:16:08;;;;;;;10.03;6.45;;;;;;;9.52;40.92;100634.95;1835326;77;21182;-76
2021/03/21 07:19:17;;;;;;;8.40;6.17;;;;;;;9.50;40.31;100635.11;1829310;77;21179;-76
2021/03/21 07:21:53;;;;;;;10.05;6.72;;;;;;;9.49;40.44;100630.73;1854808;77;21139;-75
2021/03/21 07:25:00;;;;;;;9.18;6.10;;;;;;;9.50;40.38;100628.92;1854319;77;21170;-76
2021/03/21 07:27:39;;;;;;;8.55;6.08;;;;;;;9.51;40.67;100624.75;1854296;77;21150;-76
2021/03/21 07:30:30;;;;;;;8.43;6.05;;;;;;;9.53;40.32;100621.42;1854750;77;21151;-76
2021/03/21 07:33:27;;;;;;;7.85;5.30;;;;;;;9.55;40.65;100620.80;1849046;77;21174;-75
2021/03/21 07:36:17;;;;;;;7.12;5.40;;;;;;;9.65;40.39;100619.41;1857385;77;21558;-76
2021/03/21 07:39:33;;;;;;;8.18;5.42;;;;;;;9.82;40.47;100625.81;1839183;77;21165;-76
2021/03/21 07:42:34;;;;;;;10.93;7.22;;;;;;;10.02;40.20;100613.15;1856650;77;21170;-78
2021/03/21 07:45:24;;;;;;;9.85;7.72;;;;;;;10.40;40.01;100610.23;1821584;77;21170;-75
2021/03/21 07:48:17;;;;;;;7.45;5.62;;;;;;;10.86;39.35;100610.95;1840380;77;21202;-76
2021/03/21 07:51:24;;;;;;;6.83;5.40;;;;;;;11.24;38.01;100600.80;1850865;75;21078;-77
2021/03/21 07:54:36;;;;;;;7.85;4.97;;;;;;;11.60;37.28;100602.83;1857147;77;20984;-76
2021/03/21 07:57:30;;;;;;;6.40;4.78;;;;;;;11.98;36.54;100601.13;1857082;77;20948;-77
2021/03/21 08:00:00;;;;;;;7.05;5.53;;;;;;;12.30;35.84;100597.67;1851040;75;21126;-78
2021/03/21 08:02:31;;;;;;;6.55;4.97;;;;;;;12.52;35.56;100586.27;1843130;77;21176;-76
2021/03/21 08:05:08;;;;;;;6.90;4.67;;;;;;;12.72;34.61;100581.42;1819225;77;21333;-75
2021/03/21 08:07:36;;;;;;;9.13;4.57;;;;;;;12.92;33.60;100579.20;1845931;77;21196;-75
2021/03/21 08:10:21;;;;;;;5.28;4.45;;;;;;;13.13;33.49;100570.09;1820812;77;21145;-75
2021/03/21 08:13:01;;;;;;;6.72;4.95;;;;;;;13.33;33.40;100564.34;1844193;75;21154;-77
2021/03/21 08:15:32;;;;;;;5.85;4.80;;;;;;;13.50;32.79;100563.78;1856671;77;21213;-75
2021/03/21 08:18:08;;;;;;;5.08;4.55;;;;;;;13.59;32.63;100565.42;1848064;75;21127;-75
2021/03/21 08:20:44;;;;;;;5.97;4.90;;;;;;;13.66;32.49;100561.84;1854065;77;21186;-77
2021/03/21 08:23:34;;;;;;;4.95;3.90;;;;;;;13.81;32.46;100562.46;1846909;77;21193;-76
2021/03/21 08:26:04;;;;;;;6.33;5.58;;;;;;;13.92;31.65;100553.97;1853360;77;21202;-76
2021/03/21 08:28:36;;;;;;;5.70;4.30;;;;;;;14.03;31.19;100548.67;1826754;77;21186;-76
2021/03/21 08:31:07;;;;;;;4.50;3.67;;;;;;;14.03;30.54;100551.36;1853221;77;21206;-76
2021/03/21 08:33:42;;;;;;;3.90;3.50;;;;;;;13.93;29.78;100551.59;1853147;77;21237;-76
2021/03/21 08:36:25;;;;;;;4.65;3.60;;;;;;;13.77;30.01;100551.71;1853064;76;21443;-78
2021/03/21 08:39:17;;;;;;;3.95;3.12;;;;;;;13.59;29.30;100542.03;1822085;77;21182;-76
2021/03/21 08:41:53;;;;;;;4.55;3.60;;;;;;;13.45;29.95;100537.40;1821622;78;21178;-75
2021/03/21 08:44:46;;;;;;;6.60;4.87;;;;;;;13.38;29.58;100541.78;1804280;77;21154;-75
2021/03/21 08:47:20;;;;;;;4.92;3.90;;;;;;;13.21;29.52;100536.42;1859644;77;21103;-75
2021/03/21 08:49:51;;;;;;;5.03;3.80;;;;;;;12.94;29.89;100541.73;1845058;77;21193;-76
2021/03/21 08:52:44;;;;;;;6.55;4.10;;;;;;;12.82;30.14;100533.69;1855680;77;21256;-76
2021/03/21 08:55:27;;;;;;;6.62;3.80;;;;;;;12.65;30.53;100535.55;1855499;77;21183;-76
2021/03/21 08:57:55;;;;;;;6.20;4.83;;;;;;;12.44;30.61;100524.48;1855346;77;21186;-76
2021/03/21 09:00:31;;;;;;;;;;;;;;;12.26;30.80;100532.70;1857946;77;21166;-76
2021/03/21 09:02:58;;;;;;;5.28;3.87;;;;;;;12.02;31.30;100537.55;1856892;77;20173;-77
2021/03/21 09:05:26;;;;;;;6.72;4.75;;;;;;;11.81;31.99;100533.11;1828776;77;21574;-77
2021/03/21 09:08:03;;;;;;;5.70;4.22;;;;;;;11.83;32.56;100529.81;1856225;77;21143;-76
2021/03/21 09:10:36;;;;;;;5.78;4.47;;;;;;;11.61;32.19;100532.06;1855399;77;21482;-77
2021/03/21 09:13:14;;;;;;;5.60;4.30;;;;;;;11.79;31.95;100528.42;1856373;77;21194;-76
2021/03/21 09:15:47;;;;;;;5.80;4.40;;;;;;;11.86;32.00;100521.44;1855271;77;21209;-76
2021/03/21 09:18:23;;;;;;;5.12;4.08;;;;;;;11.88;31.98;100508.68;1852102;77;21648;-75
2021/03/21 09:21:03;;;;;;;5.37;4.12;;;;;;;11.92;32.21;100505.50;1855766;77;21186;-76
2021/03/21 09:23:35;;;;;;;7.60;4.47;;;;;;;11.99;32.12;100497.64;1839081;77;21167;-75
2021/03/21 09:26:11;;;;;;;8.10;6.17;;;;;;;12.00;32.14;100493.94;1856063;77;21111;-77
2021/03/21 09:28:45;;;;;;;7.67;5.22;;;;;;;12.00;32.05;100485.05;1821826;77;21198;-78
2021/03/21 09:31:13;;;;;;;6.22;4.33;;;;;;;11.92;31.68;100496.61;1836830;77;21158;-76
2021/03/21 09:33:52;;;;;;;10.03;5.05;;;;;;;11.88;31.62;100492.58;1822886;77;21178;-75
2021/03/21 09:36:45;;;;;;;7.50;5.05;;;;;;;11.84;32.34;100494.74;1814811;79;21673;-76
2021/03/21 09:39:20;;;;;;;8.43;5.37;;;;;;;11.82;32.30;100491.88;1859081;75;21169;-73
2021/03/21 09:41:49;;;;;;;7.42;5.17;;;;;;;11.79;32.44;100485.48;1868050;75;21137;-75
2021/03/21 09:44:36;;;;;;;11.22;5.15;;;;;;;11.78;32.21;100483.31;1860002;75;21247;-75
2021/03/21 09:47:25;;;;;;;7.87;5.65;;;;;;;11.78;32.42;100481.13;1817216;78;21196;-76
2021/03/21 09:50:22;;;;;;;8.90;4.40;;;;;;;11.82;32.43;100473.95;1787529;80;21473;-75
2021/03/21 09:53:13;;;;;;;6.97;4.60;;;;;;;11.87;32.93;100476.98;1787917;80;21167;-75
2021/03/21 09:55:50;;;;;;;6.30;4.78;;;;;;;11.89;32.20;100471.44;1822366;78;21160;-76
2021/03/21 09:58:52;;;;;;;7.28;5.00;;;;;;;11.88;31.99;100461.70;1849243;77;21614;-75
2021/03/21 10:01:46;;;;;;;5.37;3.87;;;;;;;11.88;32.29;100463.89;1846714;77;21167;-77
2021/03/21 10:04:42;;;;;;;5.55;4.20;;;;;;;11.93;32.25;100454.83;1820238;77;21157;-76
2021/03/21 10:07:19;;;;;;;4.55;4.10;;;;;;;12.01;32.22;100454.00;1821965;78;21427;-75
2021/03/21 10:09:46;;;;;;;7.00;5.05;;;;;;;12.07;32.67;100449.80;1832346;76;21250;-74
2021/03/21 10:12:14;;;;;;;;;;;;;;;12.15;32.99;100442.58;1849017;77;21184;-75
2021/03/21 10:14:45;;;;;;;15.28;4.62;;;;;;;12.20;32.70;100442.08;1847107;77;20272;-75
2021/03/21 10:17:22;;;;;;;7.08;4.87;;;;;;;12.25;32.37;100447.77;1834382;77;21211;-77
2021/03/21 10:19:56;;;;;;;6.90;4.60;;;;;;;12.26;32.36;100444.58;1855198;77;21173;-77
2021/03/21 10:22:34;;;;;;;6.12;4.78;;;;;;;12.24;32.24;100445.27;1788779;80;21243;-75
2021/03/21 10:25:13;;;;;;;7.90;5.37;;;;;;;12.19;32.01;100449.80;1808545;78;21108;-75
2021/03/21 10:27:44;;;;;;;7.40;5.15;;;;;;;12.13;32.58;100444.61;1783576;78;20999;-76
2021/03/21 10:30:29;;;;;;;7.65;4.75;;;;;;;12.14;32.51;100436.89;1800821;78;21062;-74
2021/03/21 10:33:05;;;;;;;6.83;5.17;;;;;;;12.15;32.00;100431.01;1825671;78;21158;-77
2021/03/21 10:35:47;;;;;;;7.85;5.28;;;;;;;12.14;32.09;100423.97;1805967;78;20987;-77
2021/03/21 10:38:46;;;;;;;6.28;4.72;;;;;;;12.16;32.05;100415.22;1808753;78;21034;-77
2021/03/21 10:42:05;;;;;;;6.30;5.08;;;;;;;12.30;32.17;100408.32;1860074;76;22776;-76
2021/03/21 10:44:48;;;;;;;7.42;4.72;;;;;;;12.29;31.75;100408.00;1823543;77;21184;-77
2021/03/21 10:47:30;;;;;;;12.55;5.10;;;;;;;12.33;31.43;100413.37;1816940;77;21165;-76
2021/03/21 10:50:01;;;;;;;6.62;4.75;;;;;;;12.32;31.01;100397.76;1812522;77;21186;-75
2021/03/21 10:52:38;;;;;;;5.92;4.62;;;;;;;12.28;30.69;100392.90;1817381;77;21191;-75
2021/03/21 10:55:20;;;;;;;9.75;5.70;;;;;;;12.23;30.72;100388.55;1814214;77;21140;-74
2021/03/21 10:57:51;;;;;;;9.35;4.80;;;;;;;12.17;31.33;100386.88;1841540;77;21177;-76
2021/03/21 11:00:33;;;;;;;8.85;4.92;;;;;;;12.16;31.45;100381.16;1807614;77;21283;-76
2021/03/21 11:03:16;;;;;;;8.20;5.65;;;;;;;12.16;31.67;100379.81;1817076;77;21926;-77
2021/03/21 11:05:45;;;;;;;9.35;5.17;;;;;;;12.16;31.78;100377.13;1816509;77;21590;-76
2021/03/21 11:08:18;;;;;;;8.03;5.95;;;;;;;12.15;31.96;100377.31;1777807;79;21687;-76
2021/03/21 11:10:51;;;;;;;7.80;5.75;;;;;;;12.14;31.39;100368.42;1793278;79;21082;-75
2021/03/21 11:13:32;;;;;;;8.78;6.03;;;;;;;12.14;31.28;100363.55;1788519;79;21231;-75
2021/03/21 11:16:17;;;;;;;11.70;7.78;;;;;;;12.12;31.16;100367.73;1790252;80;21177;-74
2021/03/21 11:18:54;;;;;;;10.80;7.17;;;;;;;12.10;31.35;100359.02;1757276;81;21178;-75
2021/03/21 11:21:24;;;;;;;7.37;5.67;;;;;;;12.11;31.32;100356.67;1804569;77;21668;-76
2021/03/21 11:23:59;;;;;;;8.10;6.60;;;;;;;12.11;30.97;100347.27;1791473;79;20994;-76
2021/03/21 11:26:31;;;;;;;8.08;5.80;;;;;;;12.12;30.99;100346.25;1785573;80;21644;-75
2021/03/21 11:29:10;;;;;;;7.95;6.12;;;;;;;12.12;31.04;100342.23;1754873;80;21228;-76
2021/03/21 11:31:48;;;;;;;10.20;6.10;;;;;;;11.94;31.20;100342.92;1774144;80;21505;-76
2021/03/21 11:34:27;;;;;;;8.73;6.22;;;;;;;11.82;31.10;100342.93;1842381;77;21681;-76
2021/03/21 11:37:09;;;;;;;9.18;6.05;;;;;;;11.81;31.42;100331.84;1842144;77;21216;-75
2021/03/21 11:40:15;;;;;;;13.90;7.45;;;;;;;11.80;31.10;100328.83;1798872;79;21173;-77
2021/03/21 11:42:48;;;;;;;11.48;6.42;;;;;;;11.76;30.88;100338.22;1786027;80;21181;-77
2021/03/21 11:45:27;;;;;;;9.40;7.08;;;;;;;11.84;30.31;100325.67;1767129;80;21118;-76
2021/03/21 11:48:11;;;;;;;13.18;6.55;;;;;;;11.74;30.98;100329.52;1841325;77;21655;-76
2021/03/21 11:50:43;;;;;;;11.57;7.03;;;;;;;11.92;30.51;100317.61;1807957;79;21118;-76
2021/03/21 11:53:20;;;;;;;11.53;7.10;;;;;;;11.95;30.69;100311.08;1736807;82;21221;-75
2021/03/21 11:55:57;;;;;;;;;;;;;;;11.94;30.60;100301.33;1812361;79;21188;-76
2021/03/21 11:58:41;;;;;;;14.85;6.37;;;;;;;11.90;30.58;100297.33;1817404;77;20559;-76
2021/03/21 12:01:17;;;;;;;9.10;6.80;;;;;;;11.86;30.88;100297.34;1820386;78;21670;-76
2021/03/21 12:03:55;;;;;;;11.15;7.10;;;;;;;11.84;30.91;100293.97;1817217;78;21192;-76
2021/03/21 12:06:50;;;;;;;10.38;7.30;;;;;;;11.85;31.20;100288.93;1818887;78;21130;-76
2021/03/21 12:09:35;;;;;;;10.72;7.53;;;;;;;11.86;31.07;100287.44;1819144;77;21192;-76
2021/03/21 12:12:31;;;;;;;8.45;6.67;;;;;;;11.90;30.99;100282.57;1821274;77;21181;-76
2021/03/21 12:14:59;;;;;;;11.78;7.15;;;;;;;11.87;31.05;100277.53;1831205;77;21464;-75
2021/03/21 12:17:31;;;;;;;13.28;6.67;;;;;;;11.86;31.00;100282.07;1809971;77;21679;-77
2021/03/21 12:20:38;;;;;;;12.80;6.80;;;;;;;11.85;31.06;100276.85;1794598;79;21176;-76
2021/03/21 12:23:06;;;;;;;18.42;7.55;;;;;;;11.88;30.64;100269.81;1815499;77;21554;-77
2021/03/21 12:25:36;;;;;;;14.23;7.35;;;;;;;11.85;30.50;100265.61;1821909;77;21157;-76
2021/03/21 12:28:21;;;;;;;13.00;8.00;;;;;;;11.81;30.54;100261.59;1840902;77;21428;-76
2021/03/21 12:30:58;;;;;;;9.70;7.05;;;;;;;11.81;30.76;100258.04;1840958;77;21184;-75
2021/03/21 12:33:31;;;;;;;10.73;7.03;;;;;;;11.80;30.72;100256.38;1841389;77;21185;-76
2021/03/21 12:36:17;;;;;;;9.85;7.50;;;;;;;11.78;30.75;100260.58;1824996;77;21427;-77